Time;durP1;ratioP1;P1;durP2;ratioP2;P2;SDS_P1;SDS_P2;PMS_P1;PMS_P2;Temp;Humidity;BMP_temperature;BMP_pressure;BME280_temperature;BME280_humidity;BME280_pressure;Samples;Min_cycle;Max_cycle;Signal;HPM_P1;HPM_P2
2023/07/20 00:00:33;;;;;;;;;4.25;2.50;;;;;25.27;40.95;99064.59;4973065;28;45505;-59
2023/07/20 00:03:16;;;;;;;;;3.00;3.00;;;;;25.23;41.32;99059.66;4967867;28;45371;-58
2023/07/20 00:05:43;;;;;;;;;3.00;3.00;;;;;25.18;41.21;99060.13;4972312;28;45455;-59
2023/07/20 00:08:08;;;;;;;;;4.80;4.80;;;;;25.17;41.54;99062.97;4968264;28;45378;-59
2023/07/20 00:10:33;;;;;;;;;5.00;5.00;;;;;25.15;41.67;99059.56;4971532;28;45449;-59
2023/07/20 00:12:59;;;;;;;;;3.50;2.50;;;;;25.11;41.88;99059.06;4986661;28;45479;-59
2023/07/20 00:15:24;;;;;;;;;4.25;4.25;;;;;25.12;41.81;99060.75;4971590;28;45364;-58
2023/07/20 00:17:49;;;;;;;;;4.25;3.75;;;;;25.12;41.91;99060.75;4973426;28;45477;-59
2023/07/20 00:20:15;;;;;;;;;4.00;4.00;;;;;25.07;41.89;99057.66;4972467;28;45371;-59
2023/07/20 00:22:40;;;;;;;;;3.25;3.25;;;;;25.06;42.13;99058.66;4972573;28;46423;-59
2023/07/20 00:25:06;;;;;;;;;4.25;3.00;;;;;25.06;41.94;99053.25;4972856;28;45495;-59
2023/07/20 00:27:31;;;;;;;;;3.00;3.00;;;;;25.04;41.95;99053.41;4973767;28;45642;-59
2023/07/20 00:29:57;;;;;;;;;5.00;5.00;;;;;25.02;42.21;99058.13;4972658;28;45528;-59
2023/07/20 00:32:22;;;;;;;;;5.00;5.00;;;;;25.00;42.21;99057.41;4967952;28;45956;-58
2023/07/20 00:34:47;;;;;;;;;5.75;4.50;;;;;24.96;42.27;99047.97;4973729;28;45422;-58
2023/07/20 00:37:13;;;;;;;;;5.00;3.50;;;;;24.96;42.30;99047.13;4972897;28;45379;-58
2023/07/20 00:39:38;;;;;;;;;4.25;3.75;;;;;24.95;42.31;99058.91;4974562;28;45471;-58
2023/07/20 00:42:04;;;;;;;;;7.00;5.00;;;;;24.91;42.59;99060.19;4971017;28;45921;-58
2023/07/20 00:44:29;;;;;;;;;5.00;4.50;;;;;24.89;42.71;99064.88;4971637;28;45842;-58
2023/07/20 00:46:55;;;;;;;;;7.75;4.00;;;;;24.87;42.42;99065.03;4971645;28;45435;-59
2023/07/20 00:49:21;;;;;;;;;4.00;4.00;;;;;24.84;42.45;99051.84;4973515;28;45473;-59
2023/07/20 00:51:48;;;;;;;;;4.80;3.80;;;;;24.83;42.83;99050.13;4970768;28;45775;-59
2023/07/20 00:54:15;;;;;;;;;4.20;4.20;;;;;24.82;42.85;99061.06;4973648;28;45455;-59
2023/07/20 00:56:40;;;;;;;;;4.60;4.00;;;;;24.80;42.55;99055.84;4972389;28;45461;-58
2023/07/20 00:59:05;;;;;;;;;5.25;4.75;;;;;24.77;42.87;99053.47;4972586;28;45649;-59
2023/07/20 01:01:31;;;;;;;;;4.50;3.25;;;;;24.72;43.09;99042.28;4967158;28;45521;-59
2023/07/20 01:03:56;;;;;;;;;5.25;3.75;;;;;24.67;42.77;99042.72;4974129;28;45411;-60
2023/07/20 01:06:36;;;;;;;;;4.25;4.00;;;;;24.64;43.09;99042.19;4970560;28;45561;-61
2023/07/20 01:09:17;;;;;;;;;5.00;4.00;;;;;24.63;43.19;99041.34;4976239;28;45447;-59
2023/07/20 01:12:02;;;;;;;;;6.80;5.80;;;;;24.60;43.63;99052.44;4974413;28;45562;-60
2023/07/20 01:14:27;;;;;;;;;5.80;5.00;;;;;24.57;43.35;99038.41;4970600;28;45437;-59
2023/07/20 01:16:53;;;;;;;;;7.00;5.75;;;;;24.53;43.75;99039.72;4971979;28;45470;-59
2023/07/20 01:19:18;;;;;;;;;4.25;3.75;;;;;24.48;43.53;99034.78;4977139;28;45556;-58
2023/07/20 01:21:53;;;;;;;;;5.00;5.00;;;;;24.44;43.95;99033.41;4974034;28;46527;-58
2023/07/20 01:24:34;;;;;;;;;3.60;3.60;;;;;24.42;44.15;99035.41;4971462;28;45439;-59
2023/07/20 01:27:27;;;;;;;;;4.20;4.20;;;;;24.36;43.53;99036.00;4971118;28;45391;-58
2023/07/20 01:30:16;;;;;;;;;5.00;5.00;;;;;24.34;44.30;99029.91;4964111;28;45396;-58
2023/07/20 01:32:44;;;;;;;;;5.00;5.00;;;;;24.30;44.19;99029.34;4973692;28;46285;-59
2023/07/20 01:35:14;;;;;;;;;5.20;4.80;;;;;24.26;44.72;99033.38;4974441;28;46299;-59
2023/07/20 01:37:42;;;;;;;;;5.80;4.00;;;;;24.22;44.62;99023.00;4974127;28;45419;-58
2023/07/20 01:40:09;;;;;;;;;3.50;3.00;;;;;24.17;44.58;99015.34;4975278;28;45548;-58
2023/07/20 01:42:35;;;;;;;;;5.00;4.00;;;;;24.14;44.38;99017.50;4975838;28;45509;-58
2023/07/20 01:45:00;;;;;;;;;5.00;4.50;;;;;24.13;45.05;99022.03;4968886;28;45502;-58
2023/07/20 01:47:26;;;;;;;;;7.50;4.25;;;;;24.11;44.72;99025.91;4976693;28;45477;-60
2023/07/20 01:49:51;;;;;;;;;5.25;5.25;;;;;24.09;44.83;99031.44;4975019;28;45497;-60
2023/07/20 01:52:16;;;;;;;;;3.25;3.25;;;;;24.08;44.66;99012.72;4976092;28;46461;-59
2023/07/20 01:54:42;;;;;;;;;5.25;3.50;;;;;24.07;44.58;99017.25;4977022;28;45357;-58
2023/07/20 01:57:07;;;;;;;;;6.50;5.00;;;;;24.04;45.15;99019.41;4975268;28;45990;-58
2023/07/20 01:59:33;;;;;;;;;4.00;3.50;;;;;24.01;45.27;99017.84;4972475;28;45315;-59
2023/07/20 02:01:58;;;;;;;;;4.50;4.50;;;;;23.99;45.06;99018.00;4969835;28;46376;-59
2023/07/20 02:04:23;;;;;;;;;5.75;4.75;;;;;23.97;44.81;99027.22;4971579;28;45541;-58
2023/07/20 02:06:49;;;;;;;;;5.75;4.00;;;;;23.97;45.02;99017.28;4963359;28;45527;-58
2023/07/20 02:09:14;;;;;;;;;4.00;4.00;;;;;23.96;44.76;99020.16;4971101;28;45485;-59
2023/07/20 02:11:39;;;;;;;;;6.25;3.50;;;;;23.94;44.81;99016.78;4969812;28;45443;-59
2023/07/20 02:14:05;;;;;;;;;8.00;4.75;;;;;23.91;45.29;99012.53;4976570;28;45648;-58
2023/07/20 02:16:30;;;;;;;;;4.50;4.25;;;;;23.89;44.80;99013.66;4973327;28;45383;-59
2023/07/20 02:18:56;;;;;;;;;6.25;5.00;;;;;23.85;44.98;99018.50;4976047;28;45533;-57
2023/07/20 02:21:22;;;;;;;;;5.20;5.00;;;;;23.85;45.33;99023.88;4969808;28;46109;-58
2023/07/20 02:23:48;;;;;;;;;7.50;3.25;;;;;23.83;45.69;99028.56;4976032;28;45552;-58
2023/07/20 02:26:13;;;;;;;;;4.50;4.50;;;;;23.81;45.84;99022.47;4970134;28;45591;-58
2023/07/20 02:28:38;;;;;;;;;4.00;4.00;;;;;23.78;45.43;99020.09;4974701;28;45362;-58
2023/07/20 02:31:04;;;;;;;;;6.00;4.00;;;;;23.78;45.19;99024.63;4969962;28;46074;-60
2023/07/20 02:33:29;;;;;;;;;6.00;4.25;;;;;23.78;45.36;99030.00;4975625;28;45359;-59
2023/07/20 02:35:55;;;;;;;;;4.00;3.25;;;;;23.76;45.79;99024.78;4970950;28;45398;-58
2023/07/20 02:38:20;;;;;;;;;5.25;4.50;;;;;23.72;45.32;99020.66;4975529;28;45556;-58
2023/07/20 02:40:45;;;;;;;;;6.75;5.00;;;;;23.70;46.15;99021.81;4972576;28;45490;-60
2023/07/20 02:43:11;;;;;;;;;4.00;4.00;;;;;23.69;46.45;99025.50;4972246;28;45521;-58
2023/07/20 02:45:40;;;;;;;;;4.00;4.00;;;;;23.67;45.88;99028.31;4973132;28;45375;-59
2023/07/20 02:48:07;;;;;;;;;3.80;3.80;;;;;23.64;46.38;99028.63;4974961;28;45304;-60
2023/07/20 02:50:33;;;;;;;;;4.80;4.80;;;;;23.60;45.92;99028.09;4973686;28;45569;-60
2023/07/20 02:52:58;;;;;;;;;4.75;4.75;;;;;23.54;45.81;99025.13;4969426;28;45549;-60
2023/07/20 02:55:24;;;;;;;;;6.50;4.00;;;;;23.48;46.57;99029.19;4974010;28;45520;-59
2023/07/20 02:57:50;;;;;;;;;4.50;4.00;;;;;23.38;46.88;99027.53;4972437;28;45550;-59
2023/07/20 03:00:16;;;;;;;;;5.00;4.20;;;;;23.31;47.01;99032.63;4974236;28;45430;-59
2023/07/20 03:02:41;;;;;;;;;5.50;4.25;;;;;23.26;47.60;99029.53;4964443;28;45506;-59
2023/07/20 03:05:07;;;;;;;;;5.75;5.25;;;;;23.21;47.24;99038.03;4973583;28;45416;-57
2023/07/20 03:07:33;;;;;;;;;4.60;4.60;;;;;23.17;47.25;99036.63;4971544;28;45384;-59
2023/07/20 03:09:58;;;;;;;;;4.00;4.00;;;;;23.13;46.98;99032.50;4974137;28;46458;-59
2023/07/20 03:12:24;;;;;;;;;4.00;4.00;;;;;23.11;46.72;99039.91;4970875;28;45482;-59
2023/07/20 03:14:50;;;;;;;;;5.25;4.00;;;;;23.09;46.91;99041.88;4973706;28;45506;-59
2023/07/20 03:17:15;;;;;;;;;4.75;4.00;;;;;23.08;47.23;99044.69;4970572;28;45573;-60
2023/07/20 03:19:41;;;;;;;;;4.25;4.25;;;;;23.07;47.07;99041.16;4975033;28;45491;-60
2023/07/20 03:22:06;;;;;;;;;5.00;4.00;;;;;23.07;46.70;99043.84;4970070;28;45546;-59
2023/07/20 03:24:32;;;;;;;;;4.00;3.50;;;;;23.06;47.64;99042.16;4975019;28;45394;-59
2023/07/20 03:26:58;;;;;;;;;5.50;5.50;;;;;23.03;47.60;99046.97;4967337;28;45459;-59
2023/07/20 03:29:23;;;;;;;;;5.25;4.00;;;;;23.03;47.54;99042.44;4974349;28;45426;-59
2023/07/20 03:31:49;;;;;;;;;6.00;4.00;;;;;23.02;48.05;99046.09;4963131;28;45457;-59
2023/07/20 03:34:14;;;;;;;;;4.00;4.00;;;;;23.00;47.17;99049.94;4974686;28;45458;-60
2023/07/20 03:36:40;;;;;;;;;2.75;2.75;;;;;22.96;48.04;99052.03;4970585;28;45538;-59
2023/07/20 03:39:05;;;;;;;;;4.00;4.00;;;;;22.93;47.70;99055.03;4971400;28;45533;-60
2023/07/20 03:41:30;;;;;;;;;4.50;4.50;;;;;22.88;48.31;99060.81;4971555;28;45527;-60
2023/07/20 03:43:56;;;;;;;;;3.00;2.00;;;;;22.87;48.57;99058.28;4973907;28;45528;-60
2023/07/20 03:46:21;;;;;;;;;4.75;3.00;;;;;22.81;48.43;99059.69;4972391;28;45477;-58
2023/07/20 03:48:47;;;;;;;;;4.25;4.25;;;;;22.76;49.00;99056.56;4974467;28;47169;-59
2023/07/20 03:51:12;;;;;;;;;4.75;3.50;;;;;22.75;48.92;99054.00;4970457;28;45415;-56
2023/07/20 03:53:38;;;;;;;;;4.25;4.00;;;;;22.71;49.14;99055.25;4974193;28;45479;-57
2023/07/20 03:56:04;;;;;;;;;4.75;3.75;;;;;22.67;48.95;99054.69;4971798;28;45405;-54
2023/07/20 03:58:31;;;;;;;;;4.25;4.25;;;;;22.63;48.61;99047.88;4974783;28;45488;-56
2023/07/20 04:00:57;;;;;;;;;1.00;1.00;;;;;22.57;49.23;99057.38;4969553;28;45987;-56
2023/07/20 04:03:24;;;;;;;;;4.80;3.80;;;;;22.53;49.56;99061.31;4974832;28;45459;-54
2023/07/20 04:05:50;;;;;;;;;5.00;5.00;;;;;22.47;49.78;99063.69;4971739;28;45533;-55
2023/07/20 04:08:15;;;;;;;;;3.75;3.75;;;;;22.39;50.16;99063.53;4974162;28;45542;-56
2023/07/20 04:10:44;;;;;;;;;4.75;4.25;;;;;22.33;50.41;99056.88;4970607;28;45442;-56
2023/07/20 04:13:10;;;;;;;;;6.00;4.00;;;;;22.31;50.52;99056.16;4974319;28;45403;-57
2023/07/20 04:15:35;;;;;;;;;4.00;4.00;;;;;22.29;50.17;99060.81;4972000;28;45599;-56
2023/07/20 04:18:00;;;;;;;;;5.00;5.00;;;;;22.32;50.07;99057.88;4968809;28;45395;-59
2023/07/20 04:20:26;;;;;;;;;5.75;5.00;;;;;22.35;50.05;99059.44;4971791;28;45401;-51
2023/07/20 04:22:51;;;;;;;;;4.00;3.25;;;;;22.38;49.81;99061.84;4973993;28;45543;-49
2023/07/20 04:25:19;;;;;;;;;7.50;5.00;;;;;22.37;50.10;99065.53;4972028;28;45550;-52
2023/07/20 04:27:45;;;;;;;;;5.00;3.80;;;;;22.30;50.54;99054.47;4974389;28;45457;-54
2023/07/20 04:30:12;;;;;;;;;6.25;4.00;;;;;22.28;50.76;99064.53;4972870;28;45484;-55
2023/07/20 04:32:43;;;;;;;;;4.00;4.00;;;;;22.25;50.87;99062.09;4974177;28;45474;-52
2023/07/20 04:35:09;;;;;;;;;4.75;4.75;;;;;22.20;50.67;99057.13;4972448;28;45450;-50
2023/07/20 04:37:34;;;;;;;;;5.00;4.75;;;;;22.17;50.81;99056.53;4967836;28;45408;-52
2023/07/20 04:40:00;;;;;;;;;7.00;4.25;;;;;22.17;51.13;99064.59;4972694;28;46512;-51
2023/07/20 04:42:26;;;;;;;;;4.50;4.25;;;;;22.16;51.00;99058.38;4974252;28;45423;-51
2023/07/20 04:44:51;;;;;;;;;5.25;5.25;;;;;22.14;51.13;99060.34;4974834;28;45634;-49
2023/07/20 04:47:16;;;;;;;;;5.00;5.00;;;;;22.12;51.49;99066.88;4975555;28;45392;-53
2023/07/20 04:49:42;;;;;;;;;5.25;4.75;;;;;22.08;51.11;99058.22;4977533;28;45735;-53
2023/07/20 04:52:08;;;;;;;;;6.00;4.25;;;;;22.05;51.26;99065.69;4972165;28;45454;-51
2023/07/20 04:54:33;;;;;;;;;5.00;4.75;;;;;21.97;51.30;99068.16;4977485;28;46109;-54
2023/07/20 04:56:58;;;;;;;;;5.00;5.00;;;;;21.92;52.24;99071.25;4973313;28;45418;-51
2023/07/20 04:59:24;;;;;;;;;8.50;5.25;;;;;21.85;52.22;99068.25;4976912;28;45479;-51
2023/07/20 05:01:49;;;;;;;;;4.50;4.50;;;;;21.83;52.44;99072.91;4971104;28;45363;-52
2023/07/20 05:04:14;;;;;;;;;8.00;5.00;;;;;21.84;52.49;99066.56;4976471;28;45417;-54
2023/07/20 05:06:40;;;;;;;;;3.75;3.75;;;;;21.83;52.17;99066.69;4973888;28;45420;-49
2023/07/20 05:09:07;;;;;;;;;7.75;4.50;;;;;21.82;52.69;99075.72;4976073;28;45454;-52
2023/07/20 05:11:32;;;;;;;;;5.60;4.00;;;;;21.79;52.71;99068.78;4972095;28;45415;-53
2023/07/20 05:13:58;;;;;;;;;4.00;4.00;;;;;21.75;52.55;99069.19;4976409;28;45587;-57
2023/07/20 05:16:23;;;;;;;;;4.00;4.00;;;;;21.72;52.92;99062.25;4973462;28;46391;-60
2023/07/20 05:18:48;;;;;;;;;6.00;5.25;;;;;21.71;52.56;99070.44;4976410;28;45380;-59
2023/07/20 05:21:14;;;;;;;;;6.00;4.25;;;;;21.68;53.04;99062.66;4973987;28;45534;-59
2023/07/20 05:23:39;;;;;;;;;6.25;5.00;;;;;21.67;52.84;99063.63;4975770;28;45497;-59
2023/07/20 05:26:05;;;;;;;;;6.00;4.00;;;;;21.64;52.83;99067.44;4971717;28;46414;-59
2023/07/20 05:28:31;;;;;;;;;4.80;4.80;;;;;21.64;52.76;99074.63;4975507;28;45461;-59
2023/07/20 05:30:56;;;;;;;;;4.00;4.00;;;;;21.61;52.59;99072.22;4973561;28;45474;-59
2023/07/20 05:33:22;;;;;;;;;4.50;4.50;;;;;21.61;52.91;99075.75;4976416;28;45457;-59
2023/07/20 05:35:48;;;;;;;;;4.25;3.75;;;;;21.61;52.90;99075.75;4974715;28;46551;-59
2023/07/20 05:38:13;;;;;;;;;6.75;5.00;;;;;21.59;53.09;99077.72;4975112;28;45585;-59
2023/07/20 05:40:44;;;;;;;;;3.00;2.00;;;;;21.57;53.22;99083.22;4973334;28;45421;-59
2023/07/20 05:43:10;;;;;;;;;4.25;4.25;;;;;21.57;53.59;99082.38;4974058;28;45565;-59
2023/07/20 05:45:36;;;;;;;;;5.00;4.00;;;;;21.55;53.02;99078.97;4974208;28;47008;-59
2023/07/20 05:48:01;;;;;;;;;4.25;4.00;;;;;21.55;53.50;99081.66;4972563;28;45576;-59
2023/07/20 05:50:26;;;;;;;;;3.50;3.50;;;;;21.55;54.02;99089.69;4973879;28;45562;-59
2023/07/20 05:52:53;;;;;;;;;3.75;3.75;;;;;21.59;53.61;99088.47;4972515;28;45537;-59
2023/07/20 05:55:18;;;;;;;;;4.40;4.40;;;;;21.59;54.00;99086.63;4974450;28;45385;-59
2023/07/20 05:57:44;;;;;;;;;3.00;3.00;;;;;21.58;53.50;99081.38;4969580;28;45396;-59
2023/07/20 06:00:10;;;;;;;;;4.00;3.00;;;;;21.58;53.70;99076.03;4974456;28;45399;-59
2023/07/20 06:02:35;;;;;;;;;7.00;5.00;;;;;21.62;53.16;99071.25;4974812;28;45414;-59
2023/07/20 06:05:01;;;;;;;;;5.00;4.00;;;;;21.65;53.53;99071.81;4974057;28;45354;-59
2023/07/20 06:07:27;;;;;;;;;5.25;4.00;;;;;21.69;53.56;99075.94;4969329;28;45448;-59
2023/07/20 06:09:52;;;;;;;;;4.00;4.00;;;;;21.73;53.20;99076.53;4974132;28;45616;-59
2023/07/20 06:12:17;;;;;;;;;5.00;4.00;;;;;21.73;53.52;99073.84;4972652;28;45460;-59
2023/07/20 06:14:43;;;;;;;;;3.25;3.25;;;;;21.71;53.93;99071.28;4976013;28;45664;-59
2023/07/20 06:17:08;;;;;;;;;4.75;4.75;;;;;21.72;54.09;99073.00;4971525;28;45533;-59
2023/07/20 06:19:34;;;;;;;;;5.00;4.50;;;;;21.72;54.00;99067.63;4975667;28;45419;-59
2023/07/20 06:21:59;;;;;;;;;4.75;4.75;;;;;21.72;53.51;99064.94;4971649;28;45529;-59
2023/07/20 06:24:24;;;;;;;;;7.25;6.50;;;;;21.74;54.01;99068.34;4974719;28;45584;-59
2023/07/20 06:26:50;;;;;;;;;4.00;3.00;;;;;21.74;53.73;99068.34;4972800;28;45452;-59
2023/07/20 06:29:15;;;;;;;;;3.25;3.25;;;;;21.75;53.88;99069.19;4974851;28;45381;-59
2023/07/20 06:31:41;;;;;;;;;5.75;4.50;;;;;21.77;53.55;99065.41;4969597;28;45422;-59
2023/07/20 06:34:06;;;;;;;;;5.50;5.00;;;;;21.80;53.58;99065.09;4974453;28;45508;-59
2023/07/20 06:36:31;;;;;;;;;5.00;4.50;;;;;21.83;52.88;99062.16;4971831;28;45528;-59
2023/07/20 06:38:57;;;;;;;;;7.00;5.50;;;;;21.88;53.36;99061.78;4972770;28;45446;-59
2023/07/20 06:41:22;;;;;;;;;6.00;6.00;;;;;21.94;53.08;99064.78;4971286;28;45507;-58
2023/07/20 06:43:48;;;;;;;;;6.50;6.00;;;;;21.97;52.98;99063.63;4972487;28;46315;-60
2023/07/20 06:46:14;;;;;;;;;5.50;5.25;;;;;22.00;52.59;99063.41;4972516;28;45527;-60
2023/07/20 06:48:39;;;;;;;;;9.50;4.25;;;;;22.03;52.94;99057.78;4974510;28;45507;-59
2023/07/20 06:51:05;;;;;;;;;5.25;5.25;;;;;22.05;52.54;99061.19;4970195;28;45424;-59
2023/07/20 06:53:30;;;;;;;;;4.00;4.00;;;;;22.06;52.46;99057.50;4973839;28;46362;-59
2023/07/20 06:55:59;;;;;;;;;5.00;5.00;;;;;22.06;52.80;99054.81;4970065;28;45467;-60
2023/07/20 06:58:25;;;;;;;;;6.80;6.00;;;;;22.05;52.61;99055.81;4974556;28;45364;-60
2023/07/20 07:00:50;;;;;;;;;4.20;4.00;;;;;22.08;52.70;99052.00;4969899;28;45585;-59
2023/07/20 07:03:16;;;;;;;;;6.50;3.75;;;;;22.13;52.38;99053.28;4974666;28;45452;-60
2023/07/20 07:05:41;;;;;;;;;5.00;5.00;;;;;22.17;52.54;99051.19;4969194;28;45418;-59
2023/07/20 07:08:07;;;;;;;;;4.75;4.75;;;;;22.16;52.33;99055.69;4974492;28;45447;-60
2023/07/20 07:10:34;;;;;;;;;4.50;4.50;;;;;22.19;52.03;99050.06;4971028;28;45429;-60
2023/07/20 07:13:00;;;;;;;;;6.00;6.00;;;;;22.25;52.23;99048.66;4974187;28;45520;-60
2023/07/20 07:15:26;;;;;;;;;4.75;4.00;;;;;22.32;52.42;99048.94;4972050;28;45446;-60
2023/07/20 07:17:51;;;;;;;;;6.20;5.40;;;;;22.39;52.25;99039.38;4974160;28;45324;-60
2023/07/20 07:20:17;;;;;;;;;7.75;5.25;;;;;22.45;52.22;99033.47;4972818;28;45414;-58
2023/07/20 07:22:43;;;;;;;;;5.00;5.00;;;;;22.52;51.86;99042.66;4973153;28;46642;-59
2023/07/20 07:25:09;;;;;;;;;5.20;5.00;;;;;22.58;51.57;99034.88;4972456;28;45429;-60
2023/07/20 07:27:35;;;;;;;;;9.00;5.25;;;;;22.67;51.65;99038.56;4974140;28;45469;-60
2023/07/20 07:30:01;;;;;;;;;4.75;4.75;;;;;22.76;52.00;99040.44;4971596;28;45589;-60
2023/07/20 07:32:26;;;;;;;;;4.60;4.00;;;;;22.84;51.41;99042.44;4971093;28;46554;-59
2023/07/20 07:34:52;;;;;;;;;4.00;4.00;;;;;22.90;51.18;99031.97;4973286;28;45327;-60
2023/07/20 07:37:19;;;;;;;;;5.75;5.25;;;;;22.98;51.38;99031.25;4971699;28;45468;-59
2023/07/20 07:39:45;;;;;;;;;5.60;4.00;;;;;23.02;51.06;99029.13;4973423;28;45438;-59
2023/07/20 07:42:11;;;;;;;;;5.00;5.00;;;;;23.05;50.64;99027.00;4968152;28;46359;-59
2023/07/20 07:44:36;;;;;;;;;5.20;3.20;;;;;23.10;50.48;99019.38;4972231;28;45701;-59
2023/07/20 07:47:02;;;;;;;;;4.75;3.25;;;;;23.17;50.39;99020.47;4969004;28;45952;-59
2023/07/20 07:49:28;;;;;;;;;3.00;3.00;;;;;23.23;50.51;99011.00;4973481;28;45615;-59
2023/07/20 07:51:53;;;;;;;;;6.75;5.25;;;;;23.30;50.67;99014.78;4968644;28;45522;-60
2023/07/20 07:54:18;;;;;;;;;6.75;4.25;;;;;23.38;50.20;99020.31;4973392;28;45499;-59
2023/07/20 07:56:44;;;;;;;;;7.00;5.00;;;;;23.44;50.06;99005.44;4971092;28;45525;-59
2023/07/20 07:59:09;;;;;;;;;5.00;2.25;;;;;23.56;49.71;99007.84;4973200;28;45503;-59
2023/07/20 08:01:35;;;;;;;;;4.25;4.00;;;;;23.65;49.91;99000.72;4970264;28;46130;-59
2023/07/20 08:04:00;;;;;;;;;4.00;4.00;;;;;23.75;49.94;99006.06;4973025;28;45442;-59
2023/07/20 08:06:26;;;;;;;;;2.50;2.50;;;;;23.85;49.25;99002.34;4964824;28;45435;-60
2023/07/20 08:08:51;;;;;;;;;3.00;3.00;;;;;23.91;48.94;99001.75;4970346;28;45455;-59
2023/07/20 08:11:17;;;;;;;;;6.00;5.00;;;;;23.95;49.25;99005.00;4967298;28;45830;-59
2023/07/20 08:13:43;;;;;;;;;3.00;2.00;;;;;23.98;49.35;99005.53;4972799;28;45332;-59
2023/07/20 08:16:09;;;;;;;;;3.50;3.50;;;;;24.00;49.00;98998.16;4971284;28;45399;-59
2023/07/20 08:18:34;;;;;;;;;4.25;4.00;;;;;24.04;49.07;99005.94;4973027;28;45493;-59
2023/07/20 08:20:59;;;;;;;;;4.00;4.00;;;;;24.07;48.62;99008.34;4966857;28;45455;-59
2023/07/20 08:23:27;;;;;;;;;3.25;3.25;;;;;24.07;47.99;98990.31;4972311;28;45604;-59
2023/07/20 08:25:52;;;;;;;;;4.60;4.60;;;;;24.07;48.74;98990.31;4969662;28;45496;-59
2023/07/20 08:28:18;;;;;;;;;3.00;3.00;;;;;24.12;49.29;99000.66;4986934;28;45636;-59
2023/07/20 08:30:45;;;;;;;;;3.00;2.00;;;;;24.15;49.13;99008.41;4968724;28;45597;-59
2023/07/20 08:33:13;;;;;;;;;2.40;1.20;;;;;24.18;48.46;98987.41;4987546;28;45504;-59
2023/07/20 08:35:38;;;;;;;;;4.60;3.00;;;;;24.21;48.43;98991.66;4969367;28;45524;-59
2023/07/20 08:38:04;;;;;;;;;4.50;4.25;;;;;24.25;48.16;98983.16;4972895;28;45392;-59
2023/07/20 08:40:32;;;;;;;;;4.00;4.00;;;;;24.34;48.60;98978.69;4970394;28;45556;-59
2023/07/20 08:42:59;;;;;;;;;2.20;2.20;;;;;24.43;48.42;98976.97;4969590;28;45421;-59
2023/07/20 08:45:27;;;;;;;;;3.80;3.80;;;;;24.48;48.07;98975.47;4971476;28;45523;-59
2023/07/20 08:47:53;;;;;;;;;4.60;4.60;;;;;24.54;47.69;98971.34;4973499;28;45463;-59
2023/07/20 08:50:21;;;;;;;;;4.20;4.20;;;;;24.60;47.77;98968.03;4968831;28;45402;-59
2023/07/20 08:52:47;;;;;;;;;3.60;3.60;;;;;24.63;47.52;98976.63;4969177;28;45387;-59
2023/07/20 08:55:13;;;;;;;;;4.00;4.00;;;;;24.68;47.48;98962.69;4972341;28;45502;-59
2023/07/20 08:57:41;;;;;;;;;3.00;2.75;;;;;24.77;47.51;98964.50;4973406;28;45508;-58
2023/07/20 09:00:12;;;;;;;;;5.80;3.80;;;;;24.83;47.50;98950.34;4972302;28;45510;-58
2023/07/20 09:02:41;;;;;;;;;4.80;3.80;;;;;24.92;47.30;98949.44;4971940;28;45625;-58
2023/07/20 09:05:08;;;;;;;;;3.80;3.80;;;;;24.99;46.21;98950.53;4971382;28;45445;-59
2023/07/20 09:07:35;;;;;;;;;5.00;4.60;;;;;24.99;46.70;98945.13;4966795;28;45495;-59
2023/07/20 09:10:05;;;;;;;;;6.00;3.20;;;;;25.02;46.69;98950.22;4971244;28;45481;-59
2023/07/20 09:12:31;;;;;;;;;6.20;3.40;;;;;25.05;46.72;98940.97;4970016;28;45456;-59
2023/07/20 09:14:57;;;;;;;;;5.00;5.00;;;;;25.07;46.85;98940.81;4972188;28;45534;-60
2023/07/20 09:17:25;;;;;;;;;3.80;3.80;;;;;25.12;46.93;98950.13;4985288;28;45419;-60
2023/07/20 09:19:51;;;;;;;;;5.00;3.60;;;;;25.15;46.99;98939.00;4971961;28;46362;-59
2023/07/20 09:22:17;;;;;;;;;2.00;2.00;;;;;25.19;46.51;98943.09;4969449;28;45474;-59
2023/07/20 09:24:43;;;;;;;;;2.80;2.80;;;;;25.23;46.68;98935.53;4973660;28;45371;-60
2023/07/20 09:27:09;;;;;;;;;3.80;3.00;;;;;25.25;46.67;98937.06;4967243;28;45503;-60
2023/07/20 09:29:47;;;;;;;;;4.40;3.80;;;;;25.28;46.68;98934.06;4977052;28;46486;-60
2023/07/20 09:32:12;;;;;;;;;4.60;3.60;;;;;25.35;46.13;98931.53;4970195;28;45491;-59
2023/07/20 09:34:37;;;;;;;;;3.00;3.00;;;;;25.42;46.00;98924.50;4976000;28;45403;-60
2023/07/20 09:37:03;;;;;;;;;4.50;4.00;;;;;25.48;46.09;98923.84;4969702;28;45430;-59
2023/07/20 09:39:29;;;;;;;;;3.60;3.00;;;;;25.55;46.35;98921.38;4974541;28;45486;-59
2023/07/20 09:41:59;;;;;;;;;3.00;3.00;;;;;25.64;46.38;98925.81;4973031;28;45483;-59
2023/07/20 09:44:28;;;;;;;;;4.40;4.40;;;;;25.69;45.71;98918.09;4974759;28;45441;-60
2023/07/20 09:46:54;;;;;;;;;2.80;2.80;;;;;25.74;45.00;98915.75;4972537;28;45533;-60
2023/07/20 09:49:19;;;;;;;;;3.80;2.80;;;;;25.77;45.43;98914.59;4975930;28;45452;-60
2023/07/20 09:51:46;;;;;;;;;2.00;2.00;;;;;25.76;45.83;98918.28;4972716;28;45665;-60
2023/07/20 09:54:13;;;;;;;;;3.40;3.40;;;;;25.78;45.33;98913.56;4990943;28;45478;-60
2023/07/20 09:56:40;;;;;;;;;4.20;4.20;;;;;25.80;45.61;98909.72;4969606;28;45493;-59
2023/07/20 09:59:06;;;;;;;;;3.00;3.00;;;;;25.88;45.49;98906.19;4975660;28;46279;-59
2023/07/20 10:01:33;;;;;;;;;3.50;3.50;;;;;25.93;45.77;98907.38;4973098;28;45354;-58
2023/07/20 10:04:02;;;;;;;;;5.00;2.20;;;;;26.00;45.62;98891.34;4974324;28;45387;-58
2023/07/20 10:06:29;;;;;;;;;3.00;2.80;;;;;26.06;45.78;98888.00;4973315;28;45359;-60
2023/07/20 10:09:00;;;;;;;;;2.80;2.80;;;;;26.15;45.68;98895.09;4974799;28;47442;-59
2023/07/20 10:11:30;;;;;;;;;3.60;3.60;;;;;26.19;44.43;98887.50;4968418;28;45410;-58
2023/07/20 10:13:58;;;;;;;;;2.20;2.20;;;;;26.17;44.88;98886.81;4975370;28;45415;-59
2023/07/20 10:16:48;;;;;;;;;3.60;3.60;;;;;26.18;44.67;98881.25;4968627;28;45475;-61
2023/07/20 10:19:16;;;;;;;;;4.80;2.20;;;;;26.22;45.11;98874.50;4974129;28;45652;-59
2023/07/20 10:21:47;;;;;;;;;2.20;2.20;;;;;26.30;44.44;98873.72;4968377;28;46145;-60
2023/07/20 10:24:14;;;;;;;;;1.80;1.80;;;;;26.32;44.72;98866.25;4975656;28;45450;-60
2023/07/20 10:26:40;;;;;;;;;5.20;3.60;;;;;26.34;44.55;98864.25;4968235;28;45469;-60
2023/07/20 10:29:06;;;;;;;;;6.25;5.00;;;;;26.42;44.32;98856.16;4973547;28;46517;-60
2023/07/20 10:31:32;;;;;;;;;2.80;2.80;;;;;26.46;44.05;98857.50;4970174;28;45512;-59
2023/07/20 10:33:58;;;;;;;;;2.80;2.80;;;;;26.50;44.10;98860.69;4974868;28;45579;-60
2023/07/20 10:36:27;;;;;;;;;4.00;3.25;;;;;26.54;44.29;98851.25;4968301;28;45391;-59
2023/07/20 10:38:55;;;;;;;;;3.20;3.20;;;;;26.64;43.73;98860.03;4971323;28;46520;-59
2023/07/20 10:41:24;;;;;;;;;3.40;2.80;;;;;26.67;43.83;98860.53;4973759;28;45561;-60
2023/07/20 10:43:50;;;;;;;;;3.20;3.20;;;;;26.63;44.11;98856.50;4970891;28;45483;-59
2023/07/20 10:46:39;;;;;;;;;1.40;1.40;;;;;26.66;44.04;98852.59;4972152;28;45521;-59
2023/07/20 10:49:07;;;;;;;;;4.80;4.80;;;;;26.73;43.57;98850.91;4972047;28;46162;-59
2023/07/20 10:51:47;;;;;;;;;4.60;2.80;;;;;26.76;43.38;98856.81;4971739;28;45489;-59
2023/07/20 10:54:16;;;;;;;;;2.60;2.60;;;;;26.80;43.35;98841.09;4974903;28;45402;-59
2023/07/20 10:56:42;;;;;;;;;2.60;2.60;;;;;26.83;43.43;98842.59;4970943;28;45499;-59
2023/07/20 10:59:36;;;;;;;;;3.00;3.00;;;;;26.86;43.30;98836.84;4975008;28;45537;-59
2023/07/20 11:02:06;;;;;;;;;1.80;1.80;;;;;26.86;43.16;98824.16;4967846;28;45506;-59
2023/07/20 11:04:39;;;;;;;;;3.00;2.80;;;;;26.87;43.20;98825.84;4966151;28;45467;-59
2023/07/20 11:07:04;;;;;;;;;4.20;3.80;;;;;26.88;43.07;98821.28;4967963;28;45565;-59
2023/07/20 11:09:34;;;;;;;;;3.50;3.00;;;;;26.92;43.14;98819.94;4974320;28;45365;-60
2023/07/20 11:12:15;;;;;;;;;2.80;2.80;;;;;26.98;43.27;98816.56;4969662;28;45493;-59
2023/07/20 11:14:42;;;;;;;;;3.00;3.00;;;;;27.05;43.18;98820.25;4974604;28;45492;-59
2023/07/20 11:17:15;;;;;;;;;5.60;3.80;;;;;27.08;43.07;98812.66;4968920;28;45438;-59
2023/07/20 11:19:41;;;;;;;;;3.60;3.60;;;;;27.13;43.23;98820.25;4973490;28;45587;-59
2023/07/20 11:22:07;;;;;;;;;4.00;3.00;;;;;27.18;43.28;98814.28;4970158;28;45427;-59
2023/07/20 11:24:33;;;;;;;;;4.80;2.80;;;;;27.22;43.16;98812.94;4973711;28;45674;-59
2023/07/20 11:27:01;;;;;;;;;4.00;2.75;;;;;27.25;43.31;98801.75;4970255;28;45460;-59
2023/07/20 11:29:26;;;;;;;;;2.80;2.80;;;;;27.28;43.18;98809.53;4987375;28;46342;-59
2023/07/20 11:31:52;;;;;;;;;3.75;3.75;;;;;27.28;43.46;98798.72;4972328;28;45555;-59